Time;durP1;ratioP1;P1;durP2;ratioP2;P2;SDS_P1;SDS_P2;PMS_P1;PMS_P2;Temp;Humidity;BMP_temperature;BMP_pressure;BME280_temperature;BME280_humidity;BME280_pressure;Samples;Min_cycle;Max_cycle;Signal;HPM_P1;HPM_P2
2023/06/03 00:00:13;;;;;;;11.97;5.50;;;15.30;68.80;;;;;;5008886;28;20866;-73
2023/06/03 00:02:40;;;;;;;16.20;5.80;;;15.20;69.10;;;;;;5007891;28;20552;-72
2023/06/03 00:05:06;;;;;;;12.53;6.20;;;15.20;69.20;;;;;;5011923;28;20432;-72
2023/06/03 00:07:31;;;;;;;12.07;5.70;;;15.10;69.40;;;;;;5009285;28;20428;-72
2023/06/03 00:09:58;;;;;;;9.77;5.70;;;15.10;69.40;;;;;;5003566;28;20466;-74
2023/06/03 00:12:24;;;;;;;12.23;5.83;;;15.00;69.50;;;;;;5010822;28;20215;-72
2023/06/03 00:14:50;;;;;;;11.20;5.97;;;14.90;69.80;;;;;;5010228;28;20866;-72
2023/06/03 00:17:15;;;;;;;8.87;5.07;;;14.90;69.90;;;;;;5005687;28;20190;-72
2023/06/03 00:19:41;;;;;;;13.80;5.80;;;14.90;70.10;;;;;;5001238;28;20218;-71
2023/06/03 00:22:07;;;;;;;13.90;6.40;;;14.80;70.20;;;;;;5006467;28;20215;-73
2023/06/03 00:24:33;;;;;;;11.43;6.03;;;14.80;70.40;;;;;;5008667;28;20450;-73
2023/06/03 00:26:59;;;;;;;15.63;7.00;;;14.70;70.40;;;;;;5009000;28;20213;-73
2023/06/03 00:29:25;;;;;;;11.20;5.50;;;14.70;70.50;;;;;;5005685;28;20212;-74
2023/06/03 00:31:51;;;;;;;12.73;5.90;;;14.70;70.50;;;;;;5013724;28;20461;-74
2023/06/03 00:34:17;;;;;;;16.13;7.20;;;14.70;70.50;;;;;;5011376;28;20452;-73
2023/06/03 00:36:42;;;;;;;8.33;5.33;;;14.70;70.50;;;;;;5006990;28;20191;-73
2023/06/03 00:39:09;;;;;;;12.17;5.67;;;14.70;70.70;;;;;;5005905;28;20492;-74
2023/06/03 00:41:35;;;;;;;15.10;6.10;;;14.70;70.50;;;;;;5003136;28;20196;-74
2023/06/03 00:44:00;;;;;;;20.33;6.10;;;14.70;70.70;;;;;;5003167;28;21006;-73
2023/06/03 00:46:27;;;;;;;15.47;5.47;;;14.70;70.70;;;;;;5010554;28;20512;-72
2023/06/03 00:48:52;;;;;;;17.07;6.87;;;14.60;70.70;;;;;;5010058;28;20657;-73
2023/06/03 00:51:19;;;;;;;18.63;5.80;;;14.60;70.80;;;;;;5003930;28;20514;-72
2023/06/03 00:53:45;;;;;;;13.67;5.97;;;14.60;71.00;;;;;;5009431;28;20221;-71
2023/06/03 00:56:13;;;;;;;11.27;5.37;;;14.60;71.00;;;;;;5009726;28;20574;-71
2023/06/03 00:58:39;;;;;;;18.20;6.13;;;14.50;71.00;;;;;;5005898;28;20459;-72
2023/06/03 01:01:05;;;;;;;16.27;5.30;;;14.50;71.10;;;;;;5008081;28;20465;-73
2023/06/03 01:03:31;;;;;;;10.40;5.77;;;14.50;71.10;;;;;;5006702;28;20208;-74
2023/06/03 01:06:35;;;;;;;9.77;4.97;;;14.50;71.00;;;;;;5007053;28;20432;-73
2023/06/03 01:09:13;;;;;;;17.27;5.90;;;14.50;71.30;;;;;;4985864;28;20203;-74
2023/06/03 01:11:38;;;;;;;12.20;5.53;;;14.40;71.40;;;;;;5007437;28;20884;-74
2023/06/03 01:14:11;;;;;;;12.47;5.30;;;14.40;71.40;;;;;;5009289;28;20475;-73
2023/06/03 01:16:44;;;;;;;10.83;5.57;;;14.30;71.40;;;;;;5005821;28;20217;-74
2023/06/03 01:19:26;;;;;;;15.03;6.10;;;14.30;71.60;;;;;;5002634;28;20490;-71
2023/06/03 01:21:53;;;;;;;12.07;5.03;;;14.20;71.60;;;;;;5010066;28;20424;-72
2023/06/03 01:24:19;;;;;;;13.53;5.70;;;14.20;71.70;;;;;;5007010;28;20429;-75
2023/06/03 01:26:45;;;;;;;13.50;5.60;;;14.20;71.70;;;;;;5012835;28;20418;-74
2023/06/03 01:29:10;;;;;;;10.90;5.70;;;14.10;71.70;;;;;;5008933;28;21152;-72
2023/06/03 01:31:36;;;;;;;11.20;5.77;;;14.10;71.80;;;;;;5010280;28;20187;-75
2023/06/03 01:34:02;;;;;;;11.73;5.50;;;14.10;71.70;;;;;;5010880;28;20760;-73
2023/06/03 01:36:28;;;;;;;10.17;5.87;;;14.10;71.70;;;;;;5007867;28;20197;-73
2023/06/03 01:38:54;;;;;;;15.53;6.10;;;14.00;71.80;;;;;;5008542;28;20205;-73
2023/06/03 01:41:20;;;;;;;10.80;4.67;;;14.00;71.70;;;;;;5006129;28;20700;-73
2023/06/03 01:43:45;;;;;;;11.20;6.03;;;13.90;71.80;;;;;;5007903;28;20473;-74
2023/06/03 01:46:11;;;;;;;16.30;5.80;;;13.90;71.80;;;;;;5000228;28;20186;-73
2023/06/03 01:48:37;;;;;;;13.30;5.67;;;13.90;72.00;;;;;;5008676;28;20613;-73
2023/06/03 01:51:03;;;;;;;10.57;5.90;;;13.90;72.00;;;;;;4996932;28;20490;-72
2023/06/03 01:53:28;;;;;;;10.80;5.67;;;13.90;72.00;;;;;;5009201;28;20948;-74
2023/06/03 01:55:54;;;;;;;10.77;5.57;;;13.90;72.00;;;;;;5009832;28;20194;-74
2023/06/03 01:58:20;;;;;;;14.00;5.60;;;13.90;72.00;;;;;;5009863;28;20182;-72
2023/06/03 02:00:45;;;;;;;9.50;5.47;;;13.90;71.80;;;;;;5005802;28;20620;-72
2023/06/03 02:03:11;;;;;;;13.77;5.63;;;13.90;71.80;;;;;;5007569;28;20248;-72
2023/06/03 02:05:37;;;;;;;10.47;5.50;;;13.90;71.80;;;;;;5007005;28;20194;-73
2023/06/03 02:08:03;;;;;;;12.73;5.30;;;13.90;72.00;;;;;;5007970;28;20209;-74
2023/06/03 02:10:28;;;;;;;11.37;5.67;;;13.80;72.00;;;;;;5006692;28;20987;-74
2023/06/03 02:12:54;;;;;;;10.53;5.40;;;13.80;72.00;;;;;;5014943;28;20210;-71
2023/06/03 02:15:19;;;;;;;10.77;5.67;;;13.70;72.30;;;;;;5006907;28;20190;-71
2023/06/03 02:17:45;;;;;;;11.63;5.60;;;13.70;72.30;;;;;;5006276;28;20273;-74
2023/06/03 02:20:11;;;;;;;10.07;5.30;;;13.70;72.30;;;;;;5005106;28;20233;-73
2023/06/03 02:22:37;;;;;;;12.90;6.10;;;13.70;72.40;;;;;;5011658;28;20241;-71
2023/06/03 02:25:03;;;;;;;14.67;6.90;;;13.70;72.40;;;;;;5007019;28;20247;-73
2023/06/03 02:27:29;;;;;;;13.63;5.53;;;13.70;72.30;;;;;;5006871;28;20507;-71
2023/06/03 02:29:55;;;;;;;8.47;5.20;;;13.70;72.30;;;;;;5005565;28;20449;-71
2023/06/03 02:32:20;;;;;;;10.93;5.10;;;13.60;72.30;;;;;;5002772;28;20204;-72
2023/06/03 02:34:48;;;;;;;11.30;5.90;;;13.60;72.40;;;;;;5012218;28;20185;-71
2023/06/03 02:37:15;;;;;;;9.60;5.57;;;13.50;72.60;;;;;;5006292;28;20736;-72
2023/06/03 02:39:41;;;;;;;13.03;6.10;;;13.50;72.70;;;;;;5003419;28;20457;-72
2023/06/03 02:42:07;;;;;;;12.53;5.17;;;13.50;72.70;;;;;;5009340;28;20439;-72
2023/06/03 02:44:33;;;;;;;9.93;5.47;;;13.40;72.90;;;;;;5007433;28;20416;-73
2023/06/03 02:46:59;;;;;;;17.40;5.77;;;13.40;72.90;;;;;;5004709;28;20837;-72
2023/06/03 02:49:24;;;;;;;12.63;5.30;;;13.40;72.90;;;;;;5001265;28;20625;-72
2023/06/03 02:51:50;;;;;;;17.00;6.53;;;13.30;73.20;;;;;;5005309;28;20587;-71
2023/06/03 02:54:15;;;;;;;12.37;5.57;;;13.30;73.30;;;;;;5008566;28;20193;-74
2023/06/03 02:56:41;;;;;;;11.33;5.40;;;13.30;73.50;;;;;;5009680;28;20751;-71
2023/06/03 02:59:07;;;;;;;7.50;5.30;;;13.30;73.50;;;;;;5003824;28;20860;-72
2023/06/03 03:01:32;;;;;;;17.33;6.40;;;13.20;73.60;;;;;;5007647;28;20180;-72
2023/06/03 03:03:58;;;;;;;16.57;6.77;;;13.20;73.60;;;;;;5010835;28;20283;-72
2023/06/03 03:06:26;;;;;;;15.10;5.90;;;13.20;73.70;;;;;;5010982;28;20600;-71
2023/06/03 03:08:53;;;;;;;11.53;5.63;;;13.20;73.70;;;;;;5007329;28;20188;-72
2023/06/03 03:11:18;;;;;;;12.33;5.47;;;13.20;73.60;;;;;;5005244;28;20440;-71
2023/06/03 03:13:45;;;;;;;15.37;5.83;;;13.10;73.90;;;;;;5011426;28;20759;-73
2023/06/03 03:16:11;;;;;;;11.30;5.57;;;13.10;74.00;;;;;;5009120;28;20187;-72
2023/06/03 03:18:37;;;;;;;9.90;5.67;;;13.10;74.00;;;;;;5009467;28;20520;-71
2023/06/03 03:21:03;;;;;;;11.20;5.33;;;13.10;74.20;;;;;;5004126;28;21035;-75
2023/06/03 03:23:29;;;;;;;10.20;6.00;;;13.10;74.20;;;;;;5009652;28;20464;-74
2023/06/03 03:25:57;;;;;;;14.30;5.80;;;13.00;74.20;;;;;;5010429;28;20433;-72
2023/06/03 03:28:23;;;;;;;11.67;5.93;;;13.00;74.50;;;;;;5012154;28;20183;-72
2023/06/03 03:30:49;;;;;;;11.70;5.83;;;13.00;74.30;;;;;;5006809;28;20465;-73
2023/06/03 03:33:17;;;;;;;12.40;5.63;;;12.90;74.50;;;;;;5013372;28;20431;-74
2023/06/03 03:35:43;;;;;;;12.03;5.23;;;12.90;74.80;;;;;;5007991;28;21023;-72
2023/06/03 03:38:09;;;;;;;11.47;5.47;;;12.90;74.80;;;;;;5005446;28;20554;-72
2023/06/03 03:40:39;;;;;;;14.23;6.50;;;12.90;74.90;;;;;;5007956;28;20225;-72
2023/06/03 03:43:09;;;;;;;10.90;5.43;;;12.90;74.80;;;;;;5011302;28;20492;-71
2023/06/03 03:45:37;;;;;;;16.37;5.90;;;12.90;74.80;;;;;;5011067;28;21275;-72
2023/06/03 03:48:04;;;;;;;11.80;6.53;;;13.00;74.80;;;;;;5011267;28;20428;-71
2023/06/03 03:50:40;;;;;;;10.63;5.77;;;13.00;74.60;;;;;;5008286;28;20469;-72
2023/06/03 03:53:12;;;;;;;9.80;5.10;;;13.00;74.50;;;;;;5009959;28;20518;-71
2023/06/03 03:55:46;;;;;;;15.27;6.60;;;13.00;74.50;;;;;;5009864;28;20499;-72
2023/06/03 03:58:26;;;;;;;17.03;7.90;;;12.90;74.60;;;;;;5011045;28;20792;-71
2023/06/03 04:00:59;;;;;;;12.63;6.00;;;12.90;74.80;;;;;;5004071;28;20983;-72
2023/06/03 04:03:25;;;;;;;12.97;6.10;;;13.00;74.80;;;;;;5009971;28;20536;-71
2023/06/03 04:05:53;;;;;;;17.50;6.10;;;13.00;74.60;;;;;;5010616;28;20424;-72
2023/06/03 04:08:40;;;;;;;15.63;6.30;;;13.00;74.50;;;;;;5009840;28;20801;-72
2023/06/03 04:11:09;;;;;;;16.10;6.80;;;13.10;74.50;;;;;;5008302;28;20461;-71
2023/06/03 04:13:40;;;;;;;9.37;5.30;;;13.10;74.50;;;;;;5009353;28;20948;-72
2023/06/03 04:16:12;;;;;;;13.87;6.00;;;13.10;74.60;;;;;;5011199;28;20533;-74
2023/06/03 04:18:42;;;;;;;11.90;5.60;;;13.10;74.60;;;;;;5010495;28;20461;-72
2023/06/03 04:21:17;;;;;;;11.30;5.93;;;13.10;74.60;;;;;;5002006;28;21816;-74
2023/06/03 04:23:43;;;;;;;12.60;7.23;;;13.20;74.50;;;;;;5008681;28;20522;-74
2023/06/03 04:26:10;;;;;;;14.23;5.90;;;13.20;74.50;;;;;;5009769;28;20417;-71
2023/06/03 04:28:39;;;;;;;11.93;6.10;;;13.20;74.60;;;;;;5006892;28;20641;-71
2023/06/03 04:31:05;;;;;;;10.80;5.50;;;13.30;74.60;;;;;;5003177;28;20488;-71
2023/06/03 04:33:30;;;;;;;13.90;6.40;;;13.30;74.50;;;;;;5006085;28;20804;-73
2023/06/03 04:35:56;;;;;;;14.93;6.43;;;13.30;74.60;;;;;;5009852;28;20184;-72
2023/06/03 04:38:22;;;;;;;11.70;6.43;;;13.40;74.30;;;;;;5011058;28;20197;-73
2023/06/03 04:40:48;;;;;;;12.47;5.87;;;13.40;74.20;;;;;;5004149;28;20214;-72
2023/06/03 04:43:15;;;;;;;13.20;5.57;;;13.50;74.20;;;;;;5010224;28;20967;-73
2023/06/03 04:45:44;;;;;;;11.03;5.80;;;13.60;74.00;;;;;;5009734;28;20432;-72
2023/06/03 04:48:11;;;;;;;16.40;6.10;;;13.70;73.90;;;;;;5007996;28;20985;-73
2023/06/03 04:50:37;;;;;;;10.20;5.20;;;13.80;73.90;;;;;;5006617;28;20472;-74
2023/06/03 04:53:03;;;;;;;9.10;5.57;;;13.90;73.60;;;;;;5011353;28;20451;-71
2023/06/03 04:55:30;;;;;;;12.07;6.30;;;13.90;73.20;;;;;;5009602;28;20853;-71
2023/06/03 04:57:56;;;;;;;11.07;5.77;;;14.00;72.70;;;;;;5010591;28;20217;-72
2023/06/03 05:00:22;;;;;;;12.13;5.70;;;14.20;71.60;;;;;;5007467;28;20476;-71
2023/06/03 05:02:59;;;;;;;12.50;5.97;;;14.20;70.50;;;;;;5007211;28;20213;-74
2023/06/03 05:05:26;;;;;;;15.40;5.27;;;14.30;70.80;;;;;;5005756;28;20464;-72
2023/06/03 05:07:52;;;;;;;12.90;6.30;;;14.30;70.50;;;;;;5004913;28;20985;-71
2023/06/03 05:10:18;;;;;;;9.00;4.93;;;14.40;70.20;;;;;;5005049;28;20551;-71
2023/06/03 05:12:45;;;;;;;18.40;7.27;;;14.40;70.20;;;;;;5004009;28;20952;-72
2023/06/03 05:15:12;;;;;;;14.37;6.87;;;14.40;70.10;;;;;;5005518;28;20515;-71
2023/06/03 05:17:40;;;;;;;12.10;6.00;;;14.40;70.50;;;;;;5004956;28;20428;-74
2023/06/03 05:20:10;;;;;;;10.00;5.43;;;14.60;70.10;;;;;;5008228;28;20510;-72
2023/06/03 05:22:36;;;;;;;13.43;5.60;;;14.60;69.80;;;;;;5010398;28;20962;-74
2023/06/03 05:25:03;;;;;;;10.50;6.13;;;14.60;70.20;;;;;;5004021;28;20505;-74
2023/06/03 05:27:29;;;;;;;11.20;6.53;;;14.60;70.10;;;;;;5007455;28;20534;-73
2023/06/03 05:29:55;;;;;;;14.00;6.47;;;14.60;69.80;;;;;;5001047;28;20553;-73
2023/06/03 05:32:20;;;;;;;12.23;5.47;;;14.70;69.90;;;;;;5009740;28;20185;-74
2023/06/03 05:34:46;;;;;;;17.83;6.27;;;14.80;69.90;;;;;;5010329;28;20221;-72
2023/06/03 05:37:11;;;;;;;12.77;6.30;;;14.80;69.70;;;;;;5009708;28;20186;-73
2023/06/03 05:39:37;;;;;;;10.60;5.90;;;14.90;69.80;;;;;;5001757;28;20213;-72
2023/06/03 05:42:02;;;;;;;16.00;6.70;;;15.00;69.50;;;;;;5009922;28;20197;-72
2023/06/03 05:44:28;;;;;;;14.43;6.67;;;14.90;69.50;;;;;;5014246;28;20650;-71
2023/06/03 05:46:54;;;;;;;13.10;6.10;;;14.60;69.80;;;;;;5011843;28;20196;-73
2023/06/03 05:49:19;;;;;;;16.93;7.70;;;14.60;70.20;;;;;;5007978;28;20824;-72
2023/06/03 05:51:45;;;;;;;13.30;6.60;;;14.50;70.20;;;;;;5009891;28;20227;-74
2023/06/03 05:54:10;;;;;;;14.23;6.33;;;14.60;70.20;;;;;;5012979;28;20247;-72
2023/06/03 05:56:36;;;;;;;16.63;6.40;;;14.80;70.10;;;;;;5010850;28;20196;-73
2023/06/03 05:59:01;;;;;;;10.20;5.10;;;14.80;70.10;;;;;;5010794;28;20192;-72
2023/06/03 06:01:27;;;;;;;19.43;7.07;;;14.80;69.80;;;;;;5009541;28;20191;-73
2023/06/03 06:03:53;;;;;;;17.30;5.83;;;15.00;69.20;;;;;;5013658;28;20311;-72
2023/06/03 06:06:18;;;;;;;12.07;6.10;;;15.10;68.90;;;;;;5008296;28;20201;-71
2023/06/03 06:08:44;;;;;;;9.53;6.07;;;15.20;68.90;;;;;;5005773;28;20195;-72
2023/06/03 06:11:09;;;;;;;10.50;5.43;;;15.30;68.60;;;;;;5007984;28;20206;-73
2023/06/03 06:13:35;;;;;;;15.23;7.23;;;15.40;68.30;;;;;;5003441;28;20622;-73
2023/06/03 06:16:02;;;;;;;10.13;5.70;;;15.50;68.30;;;;;;5009557;28;20189;-73
2023/06/03 06:18:29;;;;;;;13.30;6.13;;;15.70;67.70;;;;;;5002185;28;20213;-74
2023/06/03 06:20:55;;;;;;;10.00;5.80;;;15.70;67.50;;;;;;5008752;28;20559;-72
2023/06/03 06:23:21;;;;;;;13.17;6.30;;;15.50;67.30;;;;;;5012504;28;20584;-76
2023/06/03 06:25:52;;;;;;;11.73;5.70;;;15.50;67.90;;;;;;5009172;28;20440;-73
2023/06/03 06:28:22;;;;;;;10.10;6.50;;;15.60;67.50;;;;;;5014005;28;20435;-73
2023/06/03 06:30:55;;;;;;;12.70;5.60;;;15.60;67.60;;;;;;5000912;28;20495;-73
2023/06/03 06:33:21;;;;;;;12.47;6.03;;;15.70;67.60;;;;;;5011577;28;20423;-73
2023/06/03 06:35:47;;;;;;;16.50;5.90;;;15.90;67.50;;;;;;5011177;28;20439;-73
2023/06/03 06:38:13;;;;;;;13.73;6.30;;;15.90;67.00;;;;;;5012797;28;20189;-73
2023/06/03 06:40:40;;;;;;;12.90;6.17;;;16.00;67.00;;;;;;5003755;28;20630;-73
2023/06/03 06:43:07;;;;;;;12.40;6.40;;;16.10;66.70;;;;;;5008428;28;20503;-74
2023/06/03 06:45:36;;;;;;;10.40;6.30;;;16.20;66.60;;;;;;5011398;28;20456;-74
2023/06/03 06:48:06;;;;;;;12.77;5.93;;;16.10;66.40;;;;;;5013196;28;20796;-73
2023/06/03 06:50:52;;;;;;;13.13;6.03;;;16.20;66.70;;;;;;5007837;28;20472;-73
2023/06/03 06:53:19;;;;;;;18.73;7.23;;;16.30;66.40;;;;;;5010362;28;20522;-73
2023/06/03 06:55:54;;;;;;;13.77;6.60;;;16.20;66.30;;;;;;5011969;28;20947;-73
2023/06/03 06:58:20;;;;;;;11.97;6.43;;;16.10;66.70;;;;;;5006431;28;20507;-74
2023/06/03 07:00:47;;;;;;;9.83;5.50;;;16.30;66.40;;;;;;5006543;28;20468;-73
2023/06/03 07:03:15;;;;;;;12.20;6.07;;;16.40;66.10;;;;;;5012898;28;20623;-74
2023/06/03 07:05:41;;;;;;;9.63;6.00;;;16.60;66.00;;;;;;5009965;28;20506;-74
2023/06/03 07:08:07;;;;;;;13.70;6.03;;;16.60;65.70;;;;;;5007043;28;20933;-75
2023/06/03 07:10:32;;;;;;;11.67;6.53;;;16.70;65.70;;;;;;5009197;28;20470;-74
2023/06/03 07:12:58;;;;;;;11.70;5.60;;;16.70;65.40;;;;;;5012906;28;20193;-75
2023/06/03 07:15:24;;;;;;;10.60;5.93;;;16.90;65.40;;;;;;5011009;28;20194;-72
2023/06/03 07:17:54;;;;;;;17.23;7.00;;;17.00;65.30;;;;;;5012952;28;20182;-74
2023/06/03 07:20:33;;;;;;;11.83;5.73;;;17.10;65.30;;;;;;5010537;28;20470;-72
2023/06/03 07:22:58;;;;;;;11.97;5.87;;;17.10;65.00;;;;;;5016917;28;20467;-73
2023/06/03 07:25:44;;;;;;;17.90;6.90;;;17.00;65.30;;;;;;5016245;28;20920;-72
2023/06/03 07:28:13;;;;;;;12.00;5.90;;;17.00;65.10;;;;;;5017579;28;20471;-73
2023/06/03 07:30:39;;;;;;;13.17;7.00;;;17.10;65.40;;;;;;5015787;28;20470;-74
2023/06/03 07:33:07;;;;;;;17.17;7.13;;;17.10;65.00;;;;;;5012714;28;20471;-72
2023/06/03 07:35:35;;;;;;;9.70;5.70;;;17.10;65.00;;;;;;5011896;28;20920;-74
2023/06/03 07:38:02;;;;;;;19.23;7.53;;;17.10;65.40;;;;;;5011888;28;20514;-72
2023/06/03 07:40:38;;;;;;;14.73;6.07;;;17.30;65.10;;;;;;5009653;28;20459;-72
2023/06/03 07:43:04;;;;;;;12.10;7.00;;;17.40;64.50;;;;;;5010680;28;20476;-73
2023/06/03 07:45:29;;;;;;;14.23;7.30;;;17.20;64.70;;;;;;5011989;28;20417;-73
2023/06/03 07:47:56;;;;;;;13.70;7.27;;;17.10;65.40;;;;;;5005221;28;20951;-73
2023/06/03 07:50:26;;;;;;;14.67;6.80;;;17.30;65.40;;;;;;5004182;28;20225;-72
2023/06/03 07:53:00;;;;;;;12.70;6.77;;;17.60;65.00;;;;;;5011438;28;20909;-74
2023/06/03 07:55:39;;;;;;;13.80;6.00;;;17.70;64.20;;;;;;5010086;28;20498;-72
2023/06/03 07:58:05;;;;;;;10.87;7.10;;;17.80;64.40;;;;;;5007898;28;20475;-73
2023/06/03 08:00:31;;;;;;;16.33;5.80;;;17.70;64.10;;;;;;5007859;28;20497;-73
2023/06/03 08:02:57;;;;;;;14.70;7.90;;;17.70;64.40;;;;;;5011583;28;20297;-74
2023/06/03 08:05:36;;;;;;;13.27;6.27;;;17.80;64.20;;;;;;5009980;28;21095;-73
2023/06/03 08:08:09;;;;;;;14.10;7.23;;;17.60;64.50;;;;;;5010960;28;20225;-72
2023/06/03 08:10:35;;;;;;;14.60;6.50;;;17.70;64.50;;;;;;5003504;28;20469;-73
2023/06/03 08:13:01;;;;;;;18.00;7.40;;;17.90;64.10;;;;;;5009323;28;20420;-73
2023/06/03 08:15:35;;;;;;;14.93;7.20;;;18.00;63.80;;;;;;5006870;28;20285;-74
2023/06/03 08:18:04;;;;;;;11.60;6.93;;;17.90;64.10;;;;;;5010640;28;20433;-74
2023/06/03 08:20:29;;;;;;;13.10;6.83;;;18.10;64.50;;;;;;5000986;28;20465;-72
2023/06/03 08:22:56;;;;;;;14.23;7.17;;;18.00;64.10;;;;;;5011491;28;20468;-75
2023/06/03 08:25:22;;;;;;;14.40;6.90;;;18.00;64.40;;;;;;5005448;28;20200;-74
2023/06/03 08:27:50;;;;;;;16.67;6.90;;;18.00;64.40;;;;;;5008098;28;20543;-75
2023/06/03 08:30:16;;;;;;;12.33;6.60;;;18.00;64.70;;;;;;5005158;28;20745;-74
2023/06/03 08:32:43;;;;;;;13.60;6.53;;;18.10;64.20;;;;;;4998249;28;20440;-73
2023/06/03 08:35:10;;;;;;;13.30;6.57;;;18.30;63.80;;;;;;5000003;28;20418;-73
2023/06/03 08:37:37;;;;;;;9.17;5.70;;;18.40;63.80;;;;;;5003750;28;20488;-73
2023/06/03 08:40:07;;;;;;;12.80;7.40;;;18.60;63.50;;;;;;5006276;28;20466;-75
2023/06/03 08:42:39;;;;;;;13.03;7.30;;;18.70;63.10;;;;;;5008362;28;20550;-75
2023/06/03 08:45:06;;;;;;;10.43;7.10;;;18.80;63.10;;;;;;5007809;28;20424;-75
2023/06/03 08:48:06;;;;;;;9.07;6.23;;;18.60;63.10;;;;;;5007577;28;20456;-74
2023/06/03 08:50:33;;;;;;;13.43;6.83;;;18.70;63.20;;;;;;5006582;28;20491;-75
2023/06/03 08:53:08;;;;;;;11.53;7.60;;;19.00;62.80;;;;;;5009655;28;20450;-75
2023/06/03 08:55:37;;;;;;;13.57;7.23;;;19.10;62.60;;;;;;5006593;28;20434;-74
2023/06/03 08:58:25;;;;;;;23.07;11.37;;;19.40;62.00;;;;;;5011226;28;20438;-74
2023/06/03 09:00:57;;;;;;;23.17;14.20;;;19.50;61.70;;;;;;5007621;28;20471;-74
2023/06/03 09:03:25;;;;;;;16.20;10.90;;;19.60;61.30;;;;;;5007295;28;20478;-74
2023/06/03 09:05:52;;;;;;;19.57;8.70;;;19.50;61.50;;;;;;5010974;28;20420;-76
2023/06/03 09:08:19;;;;;;;12.00;7.07;;;19.60;61.50;;;;;;5011538;28;20431;-74
2023/06/03 09:10:46;;;;;;;10.80;6.60;;;19.70;60.90;;;;;;5004891;28;20460;-73
2023/06/03 09:13:13;;;;;;;13.93;7.50;;;19.80;61.00;;;;;;5010806;28;20495;-74
2023/06/03 09:15:41;;;;;;;12.37;7.50;;;19.80;60.70;;;;;;5007346;28;20429;-75
2023/06/03 09:18:06;;;;;;;15.47;6.43;;;19.80;60.70;;;;;;5007116;28;20426;-75
2023/06/03 09:20:34;;;;;;;20.73;7.80;;;19.90;60.90;;;;;;5004926;28;20513;-74
2023/06/03 09:22:59;;;;;;;13.03;6.37;;;19.90;60.90;;;;;;5012060;28;20700;-76
2023/06/03 09:25:25;;;;;;;15.47;8.50;;;20.10;60.60;;;;;;5009577;28;20422;-74
2023/06/03 09:27:51;;;;;;;13.67;8.73;;;20.20;60.40;;;;;;5011366;28;20183;-74
2023/06/03 09:30:16;;;;;;;18.23;10.47;;;20.30;60.10;;;;;;5010874;28;20900;-76
2023/06/03 09:32:42;;;;;;;18.70;8.10;;;20.30;60.30;;;;;;5016147;28;20219;-73
2023/06/03 09:35:08;;;;;;;15.73;7.93;;;20.40;60.10;;;;;;5015213;28;20190;-76
2023/06/03 09:37:34;;;;;;;14.77;8.97;;;20.40;60.10;;;;;;5009872;28;20224;-73
2023/06/03 09:40:04;;;;;;;13.03;7.87;;;20.60;60.00;;;;;;5003303;28;20221;-75
2023/06/03 09:42:43;;;;;;;16.03;7.33;;;20.70;59.50;;;;;;5010845;28;21008;-73
2023/06/03 09:45:32;;;;;;;16.97;8.13;;;20.60;59.20;;;;;;5002037;28;20429;-74
2023/06/03 09:47:59;;;;;;;13.60;7.90;;;20.60;60.00;;;;;;5010110;28;20793;-76
2023/06/03 09:50:27;;;;;;;13.27;8.03;;;20.70;59.50;;;;;;5006670;28;20485;-74
2023/06/03 09:52:52;;;;;;;11.53;7.30;;;20.60;59.70;;;;;;5008377;28;20414;-73
2023/06/03 09:55:19;;;;;;;12.40;7.13;;;20.80;59.50;;;;;;5009055;28;20423;-73
2023/06/03 09:58:23;;;;;;;13.23;7.03;;;20.90;59.10;;;;;;5005098;28;20193;-71
2023/06/03 10:00:50;;;;;;;17.00;7.63;;;20.90;59.20;;;;;;4920524;29;20482;-72
2023/06/03 10:03:18;;;;;;;17.67;7.30;;;20.90;59.50;;;;;;4924347;29;20564;-73
2023/06/03 10:05:44;;;;;;;10.63;6.90;;;20.80;59.50;;;;;;4918907;29;20476;-73
2023/06/03 10:08:10;;;;;;;12.43;7.40;;;21.10;59.10;;;;;;4923758;29;20423;-72
2023/06/03 10:10:59;;;;;;;12.60;7.20;;;21.30;58.70;;;;;;4926404;29;20214;-73
2023/06/03 10:13:25;;;;;;;13.70;7.83;;;21.80;57.80;;;;;;4923619;29;20256;-73
2023/06/03 10:15:53;;;;;;;14.07;7.13;;;21.90;56.60;;;;;;4933184;29;20449;-74
2023/06/03 10:18:35;;;;;;;12.53;6.40;;;22.10;56.80;;;;;;4929368;29;20444;-75
2023/06/03 10:21:06;;;;;;;15.67;7.67;;;22.50;56.40;;;;;;4920389;29;20537;-73
2023/06/03 10:23:32;;;;;;;14.40;7.80;;;22.60;55.20;;;;;;4917213;29;20467;-74
2023/06/03 10:25:59;;;;;;;12.23;7.07;;;22.50;55.60;;;;;;4919872;29;20859;-73
2023/06/03 10:28:25;;;;;;;14.73;7.20;;;22.50;56.10;;;;;;4932171;29;20442;-74
2023/06/03 10:30:52;;;;;;;18.00;7.00;;;22.80;55.20;;;;;;4915795;29;20905;-74
2023/06/03 10:33:18;;;;;;;11.60;7.50;;;23.00;54.80;;;;;;4933139;29;20195;-73
2023/06/03 10:35:46;;;;;;;11.87;7.20;;;23.30;53.70;;;;;;5005063;28;20477;-73
2023/06/03 10:38:14;;;;;;;16.57;7.97;;;23.50;53.40;;;;;;5010694;28;20497;-74
2023/06/03 10:40:41;;;;;;;9.70;7.57;;;23.70;53.30;;;;;;5006276;28;20458;-74
2023/06/03 10:43:10;;;;;;;18.07;7.30;;;23.70;53.30;;;;;;5011708;28;20482;-73
2023/06/03 10:45:36;;;;;;;12.70;7.07;;;23.10;54.40;;;;;;5008381;28;20431;-75
2023/06/03 10:48:07;;;;;;;16.80;7.43;;;22.60;55.30;;;;;;5005367;28;20434;-74
2023/06/03 10:51:11;;;;;;;13.60;7.53;;;22.70;55.70;;;;;;5006536;28;20737;-74
2023/06/03 10:53:59;;;;;;;13.93;7.63;;;23.20;54.50;;;;;;5010816;28;20454;-75
2023/06/03 10:56:43;;;;;;;14.00;7.43;;;23.60;53.80;;;;;;5011714;28;20528;-75
2023/06/03 10:59:15;;;;;;;14.10;7.10;;;24.10;52.10;;;;;;5007618;28;20432;-74
2023/06/03 11:02:01;;;;;;;12.17;7.53;;;24.10;52.60;;;;;;5011233;28;20475;-75
2023/06/03 11:04:33;;;;;;;8.37;6.93;;;24.30;51.80;;;;;;5012341;28;20523;-73
2023/06/03 11:07:00;;;;;;;11.37;7.13;;;23.90;52.80;;;;;;5012721;28;20868;-73
2023/06/03 11:09:43;;;;;;;12.70;7.53;;;24.20;51.70;;;;;;5008003;28;20460;-76
2023/06/03 11:12:13;;;;;;;12.93;6.90;;;24.60;50.20;;;;;;5005617;28;20786;-74
2023/06/03 11:14:50;;;;;;;11.73;7.83;;;24.80;49.70;;;;;;5011915;28;20562;-73
2023/06/03 11:17:20;;;;;;;9.73;7.30;;;24.80;49.80;;;;;;5013250;28;20905;-76
2023/06/03 11:19:45;;;;;;;12.53;7.40;;;25.10;48.70;;;;;;5016332;28;20447;-73
2023/06/03 11:22:13;;;;;;;10.83;6.97;;;24.80;48.70;;;;;;5022458;28;20428;-75
2023/06/03 11:24:41;;;;;;;13.63;8.17;;;24.40;50.10;;;;;;5019052;28;20239;-74
2023/06/03 11:27:13;;;;;;;9.07;6.60;;;24.70;49.10;;;;;;5016034;28;20443;-73
2023/06/03 11:29:44;;;;;;;13.80;7.50;;;24.40;50.10;;;;;;5016626;28;20458;-73
2023/06/03 11:32:25;;;;;;;11.97;7.13;;;24.90;49.00;;;;;;5015448;28;21197;-73
2023/06/03 11:35:11;;;;;;;11.13;6.60;;;25.50;48.60;;;;;;5014053;28;20844;-73
2023/06/03 11:37:40;;;;;;;9.67;6.80;;;26.00;47.10;;;;;;5008390;28;20509;-74
2023/06/03 11:40:20;;;;;;;14.80;7.20;;;26.40;46.90;;;;;;5008192;28;20454;-74
2023/06/03 11:42:51;;;;;;;11.80;7.20;;;25.80;46.90;;;;;;5012048;28;20469;-72
2023/06/03 11:45:29;;;;;;;13.10;7.87;;;26.20;46.60;;;;;;5011251;28;20423;-73
2023/06/03 11:48:03;;;;;;;13.10;6.97;;;26.10;46.30;;;;;;5011884;28;20415;-74
2023/06/03 11:50:31;;;;;;;11.43;7.33;;;26.20;46.60;;;;;;5004694;28;20554;-74
2023/06/03 11:52:57;;;;;;;10.30;7.43;;;26.30;46.50;;;;;;5009845;28;21217;-73
2023/06/03 11:55:25;;;;;;;14.20;7.67;;;26.20;46.10;;;;;;5005680;28;20430;-73
2023/06/03 11:57:50;;;;;;;10.80;7.27;;;26.10;46.60;;;;;;5006771;28;20529;-73
2023/06/03 12:00:18;;;;;;;10.27;7.27;;;26.30;46.10;;;;;;5004330;28;20523;-73
2023/06/03 12:02:47;;;;;;;9.70;6.60;;;26.60;44.60;;;;;;5011469;28;20206;-74
2023/06/03 12:05:15;;;;;;;12.53;6.70;;;27.00;43.90;;;;;;5010191;28;20428;-74
2023/06/03 12:08:01;;;;;;;8.63;6.90;;;27.50;43.90;;;;;;5010642;28;20487;-72
2023/06/03 12:10:27;;;;;;;9.97;6.63;;;27.40;42.80;;;;;;5001345;28;20551;-73
2023/06/03 12:12:55;;;;;;;14.20;7.50;;;26.20;45.70;;;;;;5011654;28;20436;-73
2023/06/03 12:15:22;;;;;;;13.30;8.30;;;25.60;46.60;;;;;;5006558;28;20467;-73
2023/06/03 12:17:48;;;;;;;13.00;7.60;;;25.00;48.10;;;;;;5010209;28;20434;-74
2023/06/03 12:20:27;;;;;;;15.80;9.07;;;24.70;48.50;;;;;;5007817;28;20999;-72
2023/06/03 12:23:04;;;;;;;13.00;7.37;;;23.90;49.70;;;;;;5010739;28;20993;-73
2023/06/03 12:25:30;;;;;;;14.30;8.97;;;24.10;50.20;;;;;;5005434;28;21079;-74
2023/06/03 12:27:56;;;;;;;13.80;8.20;;;24.30;49.10;;;;;;5011100;28;20427;-73
2023/06/03 12:30:33;;;;;;;14.40;7.70;;;24.70;48.90;;;;;;5008586;28;20468;-73
2023/06/03 12:32:59;;;;;;;13.90;7.50;;;25.00;46.90;;;;;;5009695;28;20443;-73
2023/06/03 12:35:28;;;;;;;13.43;7.40;;;25.10;46.90;;;;;;5004166;28;20438;-73
2023/06/03 12:38:08;;;;;;;10.93;6.80;;;25.90;46.10;;;;;;5003704;28;20958;-74
2023/06/03 12:40:35;;;;;;;15.90;7.20;;;26.90;44.50;;;;;;5008414;28;20475;-74
2023/06/03 12:43:02;;;;;;;11.63;6.80;;;27.80;42.60;;;;;;5009530;28;20560;-73
2023/06/03 12:45:27;;;;;;;9.73;6.70;;;28.40;39.80;;;;;;5009444;28;20788;-74